sensor_id;sensor_type;location;lat;lon;timestamp;P1;durP1;ratioP1;P2;durP2;ratioP2
35326;SDS011;21436;52.348;20.928;2022-10-30T00:01:21;81.78;;;36.83;;
35326;SDS011;21436;52.348;20.928;2022-10-30T00:04:06;66.53;;;28.40;;
35326;SDS011;21436;52.348;20.928;2022-10-30T00:06:34;42.47;;;25.73;;
35326;SDS011;21436;52.348;20.928;2022-10-30T00:09:02;43.47;;;25.63;;
35326;SDS011;21436;52.348;20.928;2022-10-30T00:11:47;56.58;;;28.20;;
35326;SDS011;21436;52.348;20.928;2022-10-30T00:14:15;46.00;;;26.42;;
35326;SDS011;21436;52.348;20.928;2022-10-30T00:16:43;52.70;;;27.27;;
35326;SDS011;21436;52.348;20.928;2022-10-30T00:19:29;44.17;;;25.55;;
35326;SDS011;21436;52.348;20.928;2022-10-30T00:21:57;51.45;;;26.27;;
35326;SDS011;21436;52.348;20.928;2022-10-30T00:24:23;49.55;;;26.15;;
35326;SDS011;21436;52.348;20.928;2022-10-30T00:26:50;52.42;;;27.42;;
35326;SDS011;21436;52.348;20.928;2022-10-30T00:29:36;47.60;;;26.05;;
35326;SDS011;21436;52.348;20.928;2022-10-30T00:32:22;49.83;;;26.48;;
35326;SDS011;21436;52.348;20.928;2022-10-30T00:35:08;44.92;;;26.00;;
35326;SDS011;21436;52.348;20.928;2022-10-30T00:37:38;46.10;;;25.85;;
35326;SDS011;21436;52.348;20.928;2022-10-30T00:40:23;48.55;;;27.10;;
35326;SDS011;21436;52.348;20.928;2022-10-30T00:42:51;46.72;;;25.92;;
35326;SDS011;21436;52.348;20.928;2022-10-30T00:45:19;46.42;;;26.10;;
35326;SDS011;21436;52.348;20.928;2022-10-30T00:47:51;43.88;;;24.77;;
35326;SDS011;21436;52.348;20.928;2022-10-30T00:50:26;49.60;;;24.88;;
35326;SDS011;21436;52.348;20.928;2022-10-30T00:52:59;41.38;;;25.20;;
35326;SDS011;21436;52.348;20.928;2022-10-30T00:55:30;45.75;;;24.77;;
35326;SDS011;21436;52.348;20.928;2022-10-30T00:58:00;42.47;;;24.83;;
35326;SDS011;21436;52.348;20.928;2022-10-30T01:00:30;37.97;;;23.35;;
35326;SDS011;21436;52.348;20.928;2022-10-30T01:03:15;48.10;;;24.70;;
35326;SDS011;21436;52.348;20.928;2022-10-30T01:06:03;42.60;;;24.63;;
35326;SDS011;21436;52.348;20.928;2022-10-30T01:08:33;47.05;;;24.80;;
35326;SDS011;21436;52.348;20.928;2022-10-30T01:11:01;45.13;;;25.70;;
35326;SDS011;21436;52.348;20.928;2022-10-30T01:13:29;49.58;;;25.17;;
35326;SDS011;21436;52.348;20.928;2022-10-30T01:16:10;45.00;;;24.25;;
35326;SDS011;21436;52.348;20.928;2022-10-30T01:22:02;46.72;;;27.73;;
35326;SDS011;21436;52.348;20.928;2022-10-30T01:28:15;39.05;;;24.13;;
35326;SDS011;21436;52.348;20.928;2022-10-30T01:31:19;37.45;;;23.02;;
35326;SDS011;21436;52.348;20.928;2022-10-30T01:33:55;42.80;;;23.40;;
35326;SDS011;21436;52.348;20.928;2022-10-30T01:39:28;39.78;;;22.77;;
35326;SDS011;21436;52.348;20.928;2022-10-30T01:56:38;38.45;;;23.70;;
35326;SDS011;21436;52.348;20.928;2022-10-30T01:59:12;40.15;;;22.15;;
35326;SDS011;21436;52.348;20.928;2022-10-30T02:02:10;37.83;;;23.08;;
35326;SDS011;21436;52.348;20.928;2022-10-30T02:04:56;40.72;;;22.98;;
35326;SDS011;21436;52.348;20.928;2022-10-30T02:07:44;46.15;;;23.30;;
35326;SDS011;21436;52.348;20.928;2022-10-30T02:10:12;42.20;;;23.02;;
35326;SDS011;21436;52.348;20.928;2022-10-30T02:12:40;37.72;;;22.45;;
35326;SDS011;21436;52.348;20.928;2022-10-30T02:15:09;42.38;;;22.63;;
35326;SDS011;21436;52.348;20.928;2022-10-30T02:17:37;39.97;;;24.05;;
35326;SDS011;21436;52.348;20.928;2022-10-30T02:20:06;38.15;;;22.90;;
35326;SDS011;21436;52.348;20.928;2022-10-30T02:22:41;44.95;;;23.15;;
35326;SDS011;21436;52.348;20.928;2022-10-30T02:25:08;40.72;;;23.30;;
35326;SDS011;21436;52.348;20.928;2022-10-30T02:27:54;41.08;;;23.55;;
35326;SDS011;21436;52.348;20.928;2022-10-30T02:30:21;54.50;;;27.85;;
35326;SDS011;21436;52.348;20.928;2022-10-30T02:32:48;45.30;;;25.63;;
35326;SDS011;21436;52.348;20.928;2022-10-30T02:35:34;44.50;;;25.02;;
35326;SDS011;21436;52.348;20.928;2022-10-30T02:38:02;46.17;;;24.38;;
35326;SDS011;21436;52.348;20.928;2022-10-30T02:40:29;42.88;;;23.92;;
35326;SDS011;21436;52.348;20.928;2022-10-30T02:42:57;43.85;;;23.48;;
35326;SDS011;21436;52.348;20.928;2022-10-30T02:45:25;43.20;;;22.95;;
35326;SDS011;21436;52.348;20.928;2022-10-30T02:47:53;40.22;;;23.45;;
35326;SDS011;21436;52.348;20.928;2022-10-30T02:50:20;52.70;;;23.50;;
35326;SDS011;21436;52.348;20.928;2022-10-30T02:52:50;43.80;;;23.45;;
35326;SDS011;21436;52.348;20.928;2022-10-30T02:55:18;40.50;;;22.92;;
35326;SDS011;21436;52.348;20.928;2022-10-30T02:58:05;49.67;;;22.83;;
35326;SDS011;21436;52.348;20.928;2022-10-30T03:00:33;49.67;;;23.63;;
35326;SDS011;21436;52.348;20.928;2022-10-30T03:03:00;40.13;;;23.27;;
35326;SDS011;21436;52.348;20.928;2022-10-30T03:05:28;45.47;;;23.45;;
35326;SDS011;21436;52.348;20.928;2022-10-30T03:07:55;38.60;;;22.98;;
35326;SDS011;21436;52.348;20.928;2022-10-30T03:10:23;43.10;;;23.23;;
35326;SDS011;21436;52.348;20.928;2022-10-30T03:12:51;35.97;;;22.45;;
35326;SDS011;21436;52.348;20.928;2022-10-30T03:15:18;44.03;;;23.67;;
35326;SDS011;21436;52.348;20.928;2022-10-30T03:17:46;38.83;;;22.42;;
35326;SDS011;21436;52.348;20.928;2022-10-30T03:20:15;39.28;;;22.80;;
35326;SDS011;21436;52.348;20.928;2022-10-30T03:22:43;42.58;;;23.63;;
35326;SDS011;21436;52.348;20.928;2022-10-30T03:25:10;42.10;;;24.25;;
35326;SDS011;21436;52.348;20.928;2022-10-30T03:27:56;40.90;;;23.20;;
35326;SDS011;21436;52.348;20.928;2022-10-30T03:30:42;43.20;;;23.48;;
35326;SDS011;21436;52.348;20.928;2022-10-30T03:33:11;40.03;;;23.25;;
35326;SDS011;21436;52.348;20.928;2022-10-30T03:35:39;44.13;;;24.38;;
35326;SDS011;21436;52.348;20.928;2022-10-30T03:38:06;44.92;;;24.52;;
35326;SDS011;21436;52.348;20.928;2022-10-30T03:40:34;44.92;;;24.83;;
35326;SDS011;21436;52.348;20.928;2022-10-30T03:43:20;44.10;;;24.00;;
35326;SDS011;21436;52.348;20.928;2022-10-30T03:46:06;39.15;;;23.05;;
35326;SDS011;21436;52.348;20.928;2022-10-30T03:48:33;49.00;;;24.70;;
35326;SDS011;21436;52.348;20.928;2022-10-30T03:51:19;41.30;;;24.55;;
35326;SDS011;21436;52.348;20.928;2022-10-30T03:53:47;43.60;;;24.58;;
35326;SDS011;21436;52.348;20.928;2022-10-30T03:56:14;47.53;;;25.95;;
35326;SDS011;21436;52.348;20.928;2022-10-30T03:58:46;53.20;;;27.30;;
35326;SDS011;21436;52.348;20.928;2022-10-30T04:01:18;47.53;;;25.83;;
35326;SDS011;21436;52.348;20.928;2022-10-30T04:04:08;48.78;;;26.27;;
35326;SDS011;21436;52.348;20.928;2022-10-30T04:06:36;44.33;;;26.55;;
35326;SDS011;21436;52.348;20.928;2022-10-30T04:09:04;42.70;;;25.58;;
35326;SDS011;21436;52.348;20.928;2022-10-30T04:11:36;43.80;;;25.70;;
35326;SDS011;21436;52.348;20.928;2022-10-30T04:14:03;49.30;;;25.13;;
35326;SDS011;21436;52.348;20.928;2022-10-30T04:16:50;40.53;;;25.05;;
35326;SDS011;21436;52.348;20.928;2022-10-30T04:19:35;46.85;;;24.38;;
35326;SDS011;21436;52.348;20.928;2022-10-30T04:22:03;45.10;;;26.27;;
35326;SDS011;21436;52.348;20.928;2022-10-30T04:24:31;55.95;;;25.20;;
35326;SDS011;21436;52.348;20.928;2022-10-30T04:26:59;45.85;;;24.77;;
35326;SDS011;21436;52.348;20.928;2022-10-30T04:29:26;52.28;;;26.40;;
35326;SDS011;21436;52.348;20.928;2022-10-30T04:31:54;46.10;;;24.85;;
35326;SDS011;21436;52.348;20.928;2022-10-30T04:34:22;46.72;;;25.58;;
35326;SDS011;21436;52.348;20.928;2022-10-30T04:37:07;42.22;;;23.98;;
35326;SDS011;21436;52.348;20.928;2022-10-30T04:39:35;48.00;;;24.92;;
35326;SDS011;21436;52.348;20.928;2022-10-30T04:42:13;39.35;;;23.08;;
35326;SDS011;21436;52.348;20.928;2022-10-30T04:44:41;45.03;;;24.25;;
35326;SDS011;21436;52.348;20.928;2022-10-30T04:47:28;46.50;;;24.27;;
35326;SDS011;21436;52.348;20.928;2022-10-30T04:50:14;44.47;;;24.35;;
35326;SDS011;21436;52.348;20.928;2022-10-30T04:52:42;45.35;;;23.90;;
35326;SDS011;21436;52.348;20.928;2022-10-30T04:55:10;44.15;;;25.05;;
35326;SDS011;21436;52.348;20.928;2022-10-30T04:57:40;46.88;;;25.13;;
35326;SDS011;21436;52.348;20.928;2022-10-30T05:00:09;40.35;;;24.13;;
35326;SDS011;21436;52.348;20.928;2022-10-30T05:02:57;42.92;;;23.90;;
35326;SDS011;21436;52.348;20.928;2022-10-30T05:05:30;43.00;;;24.25;;
35326;SDS011;21436;52.348;20.928;2022-10-30T05:08:16;45.03;;;24.00;;
35326;SDS011;21436;52.348;20.928;2022-10-30T05:11:03;43.90;;;24.20;;
35326;SDS011;21436;52.348;20.928;2022-10-30T05:13:31;42.47;;;23.02;;
35326;SDS011;21436;52.348;20.928;2022-10-30T05:15:58;45.35;;;25.50;;
35326;SDS011;21436;52.348;20.928;2022-10-30T05:18:26;45.63;;;24.67;;
35326;SDS011;21436;52.348;20.928;2022-10-30T05:20:53;39.58;;;22.30;;
35326;SDS011;21436;52.348;20.928;2022-10-30T05:23:22;40.10;;;24.55;;
35326;SDS011;21436;52.348;20.928;2022-10-30T05:25:49;41.42;;;23.58;;
35326;SDS011;21436;52.348;20.928;2022-10-30T05:28:35;39.60;;;22.85;;
35326;SDS011;21436;52.348;20.928;2022-10-30T05:31:21;42.80;;;23.40;;
35326;SDS011;21436;52.348;20.928;2022-10-30T05:34:09;44.53;;;23.48;;
35326;SDS011;21436;52.348;20.928;2022-10-30T05:36:38;44.60;;;23.45;;
35326;SDS011;21436;52.348;20.928;2022-10-30T05:39:07;40.10;;;22.58;;
35326;SDS011;21436;52.348;20.928;2022-10-30T05:41:55;38.58;;;22.45;;
35326;SDS011;21436;52.348;20.928;2022-10-30T05:44:27;49.67;;;23.87;;
35326;SDS011;21436;52.348;20.928;2022-10-30T05:47:16;43.20;;;24.83;;
35326;SDS011;21436;52.348;20.928;2022-10-30T05:50:08;41.75;;;23.08;;
35326;SDS011;21436;52.348;20.928;2022-10-30T05:52:36;45.78;;;23.65;;
35326;SDS011;21436;52.348;20.928;2022-10-30T05:55:04;46.65;;;24.85;;
35326;SDS011;21436;52.348;20.928;2022-10-30T05:57:40;40.60;;;24.08;;
35326;SDS011;21436;52.348;20.928;2022-10-30T06:00:08;45.42;;;25.17;;
35326;SDS011;21436;52.348;20.928;2022-10-30T06:02:42;43.33;;;24.48;;
35326;SDS011;21436;52.348;20.928;2022-10-30T06:05:12;51.60;;;25.02;;
35326;SDS011;21436;52.348;20.928;2022-10-30T06:07:40;40.67;;;23.95;;
35326;SDS011;21436;52.348;20.928;2022-10-30T06:10:07;44.83;;;23.58;;
35326;SDS011;21436;52.348;20.928;2022-10-30T06:15:22;45.67;;;23.98;;
35326;SDS011;21436;52.348;20.928;2022-10-30T06:17:51;46.45;;;23.83;;
35326;SDS011;21436;52.348;20.928;2022-10-30T06:20:41;46.15;;;24.40;;
35326;SDS011;21436;52.348;20.928;2022-10-30T06:23:25;49.90;;;24.58;;
35326;SDS011;21436;52.348;20.928;2022-10-30T06:26:03;42.15;;;23.25;;
35326;SDS011;21436;52.348;20.928;2022-10-30T06:28:42;41.17;;;23.17;;
35326;SDS011;21436;52.348;20.928;2022-10-30T06:31:12;43.50;;;23.20;;
35326;SDS011;21436;52.348;20.928;2022-10-30T06:33:39;43.97;;;22.73;;
35326;SDS011;21436;52.348;20.928;2022-10-30T06:36:08;40.45;;;22.83;;
35326;SDS011;21436;52.348;20.928;2022-10-30T06:38:36;42.08;;;22.40;;
35326;SDS011;21436;52.348;20.928;2022-10-30T06:41:03;35.58;;;21.70;;
35326;SDS011;21436;52.348;20.928;2022-10-30T06:44:09;40.30;;;22.45;;
35326;SDS011;21436;52.348;20.928;2022-10-30T06:46:37;38.85;;;22.58;;
35326;SDS011;21436;52.348;20.928;2022-10-30T06:49:04;40.50;;;22.52;;
35326;SDS011;21436;52.348;20.928;2022-10-30T06:51:31;40.88;;;22.50;;
35326;SDS011;21436;52.348;20.928;2022-10-30T06:53:59;38.55;;;22.80;;
35326;SDS011;21436;52.348;20.928;2022-10-30T06:56:57;45.42;;;23.80;;
35326;SDS011;21436;52.348;20.928;2022-10-30T06:59:45;43.00;;;22.75;;
35326;SDS011;21436;52.348;20.928;2022-10-30T07:02:31;39.53;;;22.75;;
35326;SDS011;21436;52.348;20.928;2022-10-30T07:05:03;35.72;;;21.75;;
35326;SDS011;21436;52.348;20.928;2022-10-30T07:07:50;37.40;;;22.38;;
35326;SDS011;21436;52.348;20.928;2022-10-30T07:10:17;39.42;;;22.02;;
35326;SDS011;21436;52.348;20.928;2022-10-30T07:13:04;32.92;;;20.35;;
35326;SDS011;21436;52.348;20.928;2022-10-30T07:16:10;37.20;;;21.35;;
35326;SDS011;21436;52.348;20.928;2022-10-30T07:18:41;31.10;;;20.35;;
35326;SDS011;21436;52.348;20.928;2022-10-30T07:21:08;35.78;;;20.88;;
35326;SDS011;21436;52.348;20.928;2022-10-30T07:23:36;34.17;;;20.08;;
35326;SDS011;21436;52.348;20.928;2022-10-30T07:26:34;34.15;;;18.92;;
35326;SDS011;21436;52.348;20.928;2022-10-30T07:29:33;33.65;;;19.48;;
35326;SDS011;21436;52.348;20.928;2022-10-30T07:32:21;33.08;;;19.52;;
35326;SDS011;21436;52.348;20.928;2022-10-30T07:35:10;37.20;;;20.90;;
35326;SDS011;21436;52.348;20.928;2022-10-30T07:38:04;32.33;;;19.52;;
35326;SDS011;21436;52.348;20.928;2022-10-30T07:40:50;37.10;;;20.48;;
35326;SDS011;21436;52.348;20.928;2022-10-30T07:43:37;34.28;;;19.75;;
35326;SDS011;21436;52.348;20.928;2022-10-30T07:46:23;36.75;;;18.38;;
35326;SDS011;21436;52.348;20.928;2022-10-30T07:49:17;33.55;;;17.88;;
35326;SDS011;21436;52.348;20.928;2022-10-30T07:51:49;33.15;;;19.73;;
35326;SDS011;21436;52.348;20.928;2022-10-30T07:54:17;29.95;;;18.75;;
35326;SDS011;21436;52.348;20.928;2022-10-30T07:56:44;35.67;;;18.42;;
35326;SDS011;21436;52.348;20.928;2022-10-30T07:59:30;29.80;;;18.08;;
35326;SDS011;21436;52.348;20.928;2022-10-30T08:02:33;30.38;;;16.80;;
35326;SDS011;21436;52.348;20.928;2022-10-30T08:05:23;33.25;;;18.23;;
35326;SDS011;21436;52.348;20.928;2022-10-30T08:08:19;29.48;;;17.55;;
35326;SDS011;21436;52.348;20.928;2022-10-30T08:10:55;29.83;;;17.15;;
35326;SDS011;21436;52.348;20.928;2022-10-30T08:13:41;33.88;;;15.88;;
35326;SDS011;21436;52.348;20.928;2022-10-30T08:16:09;32.17;;;17.05;;
35326;SDS011;21436;52.348;20.928;2022-10-30T08:18:37;28.65;;;15.90;;
35326;SDS011;21436;52.348;20.928;2022-10-30T08:21:25;33.20;;;15.98;;
35326;SDS011;21436;52.348;20.928;2022-10-30T08:24:13;27.05;;;15.35;;
35326;SDS011;21436;52.348;20.928;2022-10-30T08:26:44;24.25;;;15.43;;
35326;SDS011;21436;52.348;20.928;2022-10-30T08:29:12;24.95;;;15.32;;
35326;SDS011;21436;52.348;20.928;2022-10-30T08:31:41;29.13;;;14.95;;
35326;SDS011;21436;52.348;20.928;2022-10-30T08:34:27;32.03;;;15.18;;
35326;SDS011;21436;52.348;20.928;2022-10-30T08:37:02;27.13;;;15.88;;
35326;SDS011;21436;52.348;20.928;2022-10-30T08:39:30;28.40;;;14.90;;
35326;SDS011;21436;52.348;20.928;2022-10-30T08:42:14;33.90;;;15.98;;
35326;SDS011;21436;52.348;20.928;2022-10-30T08:45:02;27.95;;;14.88;;
35326;SDS011;21436;52.348;20.928;2022-10-30T08:47:56;24.80;;;14.38;;
35326;SDS011;21436;52.348;20.928;2022-10-30T08:50:28;27.02;;;13.85;;
35326;SDS011;21436;52.348;20.928;2022-10-30T08:53:14;28.45;;;14.45;;
35326;SDS011;21436;52.348;20.928;2022-10-30T08:56:02;23.90;;;12.30;;
35326;SDS011;21436;52.348;20.928;2022-10-30T08:58:43;24.63;;;13.20;;
35326;SDS011;21436;52.348;20.928;2022-10-30T09:01:12;25.70;;;12.77;;
35326;SDS011;21436;52.348;20.928;2022-10-30T09:04:16;20.73;;;11.85;;
35326;SDS011;21436;52.348;20.928;2022-10-30T09:07:02;20.80;;;11.63;;
35326;SDS011;21436;52.348;20.928;2022-10-30T09:09:53;25.75;;;13.13;;
35326;SDS011;21436;52.348;20.928;2022-10-30T09:12:22;23.52;;;12.13;;
35326;SDS011;21436;52.348;20.928;2022-10-30T09:14:50;22.95;;;12.73;;
35326;SDS011;21436;52.348;20.928;2022-10-30T09:17:17;19.33;;;11.57;;
35326;SDS011;21436;52.348;20.928;2022-10-30T09:19:46;23.70;;;11.65;;
35326;SDS011;21436;52.348;20.928;2022-10-30T09:22:20;19.40;;;10.98;;
35326;SDS011;21436;52.348;20.928;2022-10-30T09:24:48;18.67;;;10.73;;
35326;SDS011;21436;52.348;20.928;2022-10-30T09:27:37;16.95;;;10.45;;
35326;SDS011;21436;52.348;20.928;2022-10-30T09:30:07;22.00;;;11.63;;
35326;SDS011;21436;52.348;20.928;2022-10-30T09:32:41;20.63;;;11.57;;
35326;SDS011;21436;52.348;20.928;2022-10-30T09:35:16;16.55;;;11.15;;
35326;SDS011;21436;52.348;20.928;2022-10-30T09:37:43;22.52;;;11.13;;
35326;SDS011;21436;52.348;20.928;2022-10-30T09:40:18;23.85;;;11.32;;
35326;SDS011;21436;52.348;20.928;2022-10-30T09:59:10;15.23;;;10.50;;
35326;SDS011;21436;52.348;20.928;2022-10-30T10:01:59;17.88;;;9.45;;
35326;SDS011;21436;52.348;20.928;2022-10-30T10:05:00;17.40;;;8.85;;
35326;SDS011;21436;52.348;20.928;2022-10-30T10:07:56;14.40;;;8.57;;
35326;SDS011;21436;52.348;20.928;2022-10-30T10:11:11;18.13;;;7.82;;
35326;SDS011;21436;52.348;20.928;2022-10-30T10:13:46;18.10;;;8.23;;
35326;SDS011;21436;52.348;20.928;2022-10-30T10:16:17;13.02;;;7.15;;
35326;SDS011;21436;52.348;20.928;2022-10-30T10:19:09;12.40;;;6.30;;
35326;SDS011;21436;52.348;20.928;2022-10-30T10:21:54;11.27;;;6.15;;
35326;SDS011;21436;52.348;20.928;2022-10-30T10:24:25;12.90;;;6.30;;
35326;SDS011;21436;52.348;20.928;2022-10-30T10:32:37;16.02;;;6.15;;
35326;SDS011;21436;52.348;20.928;2022-10-30T10:52:45;10.65;;;4.55;;
35326;SDS011;21436;52.348;20.928;2022-10-30T10:55:20;9.43;;;4.18;;
35326;SDS011;21436;52.348;20.928;2022-10-30T10:57:48;11.77;;;4.07;;
35326;SDS011;21436;52.348;20.928;2022-10-30T11:00:19;10.15;;;5.05;;
35326;SDS011;21436;52.348;20.928;2022-10-30T11:08:17;8.75;;;4.18;;
35326;SDS011;21436;52.348;20.928;2022-10-30T11:11:01;8.45;;;3.40;;
35326;SDS011;21436;52.348;20.928;2022-10-30T11:13:32;6.00;;;3.13;;
35326;SDS011;21436;52.348;20.928;2022-10-30T11:19:09;8.60;;;3.60;;
35326;SDS011;21436;52.348;20.928;2022-10-30T11:21:38;7.78;;;3.40;;
35326;SDS011;21436;52.348;20.928;2022-10-30T11:24:28;5.93;;;3.25;;
35326;SDS011;21436;52.348;20.928;2022-10-30T11:29:57;5.90;;;2.80;;
35326;SDS011;21436;52.348;20.928;2022-10-30T11:32:28;4.03;;;2.35;;
35326;SDS011;21436;52.348;20.928;2022-10-30T11:35:01;5.57;;;2.63;;
35326;SDS011;21436;52.348;20.928;2022-10-30T11:40:50;6.28;;;2.65;;
35326;SDS011;21436;52.348;20.928;2022-10-30T11:43:21;7.43;;;2.97;;
35326;SDS011;21436;52.348;20.928;2022-10-30T11:45:49;11.18;;;3.20;;
35326;SDS011;21436;52.348;20.928;2022-10-30T11:48:21;10.88;;;3.33;;
35326;SDS011;21436;52.348;20.928;2022-10-30T11:50:50;5.55;;;2.67;;
35326;SDS011;21436;52.348;20.928;2022-10-30T11:53:20;5.40;;;2.45;;
35326;SDS011;21436;52.348;20.928;2022-10-30T11:55:50;4.95;;;2.80;;
35326;SDS011;21436;52.348;20.928;2022-10-30T11:58:20;4.75;;;2.15;;
35326;SDS011;21436;52.348;20.928;2022-10-30T12:01:21;4.78;;;2.58;;
35326;SDS011;21436;52.348;20.928;2022-10-30T12:09:44;5.60;;;3.40;;
35326;SDS011;21436;52.348;20.928;2022-10-30T12:14:46;5.43;;;2.90;;
35326;SDS011;21436;52.348;20.928;2022-10-30T12:17:14;6.72;;;2.65;;
35326;SDS011;21436;52.348;20.928;2022-10-30T12:19:49;6.18;;;2.92;;
35326;SDS011;21436;52.348;20.928;2022-10-30T12:22:22;6.15;;;3.03;;
35326;SDS011;21436;52.348;20.928;2022-10-30T12:24:54;5.85;;;3.30;;
35326;SDS011;21436;52.348;20.928;2022-10-30T12:27:41;4.03;;;2.80;;
35326;SDS011;21436;52.348;20.928;2022-10-30T12:30:18;6.50;;;2.88;;
35326;SDS011;21436;52.348;20.928;2022-10-30T12:32:48;10.57;;;3.85;;
35326;SDS011;21436;52.348;20.928;2022-10-30T12:43:44;6.57;;;3.10;;
35326;SDS011;21436;52.348;20.928;2022-10-30T12:46:20;6.15;;;2.83;;
35326;SDS011;21436;52.348;20.928;2022-10-30T12:49:02;5.35;;;3.25;;
35326;SDS011;21436;52.348;20.928;2022-10-30T12:51:39;8.15;;;4.07;;
35326;SDS011;21436;52.348;20.928;2022-10-30T12:54:16;5.90;;;3.30;;
35326;SDS011;21436;52.348;20.928;2022-10-30T12:57:25;5.38;;;3.55;;
35326;SDS011;21436;52.348;20.928;2022-10-30T12:59:56;4.65;;;3.00;;
35326;SDS011;21436;52.348;20.928;2022-10-30T13:05:46;6.32;;;3.97;;
35326;SDS011;21436;52.348;20.928;2022-10-30T13:13:40;9.15;;;4.30;;
35326;SDS011;21436;52.348;20.928;2022-10-30T13:16:28;9.48;;;7.47;;
35326;SDS011;21436;52.348;20.928;2022-10-30T13:19:00;10.77;;;7.88;;
35326;SDS011;21436;52.348;20.928;2022-10-30T13:24:25;11.40;;;8.77;;
35326;SDS011;21436;52.348;20.928;2022-10-30T13:26:56;11.50;;;9.55;;
35326;SDS011;21436;52.348;20.928;2022-10-30T13:32:25;17.45;;;12.45;;
35326;SDS011;21436;52.348;20.928;2022-10-30T13:35:00;14.35;;;10.43;;
35326;SDS011;21436;52.348;20.928;2022-10-30T13:41:31;9.30;;;7.57;;
35326;SDS011;21436;52.348;20.928;2022-10-30T13:52:03;11.30;;;6.75;;
35326;SDS011;21436;52.348;20.928;2022-10-30T13:54:38;12.75;;;5.30;;
35326;SDS011;21436;52.348;20.928;2022-10-30T14:00:59;6.35;;;3.97;;
35326;SDS011;21436;52.348;20.928;2022-10-30T14:15:25;9.45;;;5.70;;
35326;SDS011;21436;52.348;20.928;2022-10-30T14:20:40;10.48;;;6.50;;
35326;SDS011;21436;52.348;20.928;2022-10-30T14:28:37;10.65;;;6.53;;
35326;SDS011;21436;52.348;20.928;2022-10-30T14:31:39;10.70;;;6.18;;
35326;SDS011;21436;52.348;20.928;2022-10-30T14:34:00;10.07;;;6.05;;
35326;SDS011;21436;52.348;20.928;2022-10-30T14:47:49;12.43;;;8.18;;
35326;SDS011;21436;52.348;20.928;2022-10-30T14:50:29;13.25;;;8.00;;
35326;SDS011;21436;52.348;20.928;2022-10-30T14:58:15;14.82;;;8.50;;
35326;SDS011;21436;52.348;20.928;2022-10-30T15:01:18;11.75;;;8.10;;
35326;SDS011;21436;52.348;20.928;2022-10-30T15:09:26;12.13;;;7.63;;
35326;SDS011;21436;52.348;20.928;2022-10-30T15:14:58;12.70;;;7.07;;
35326;SDS011;21436;52.348;20.928;2022-10-30T15:17:45;13.73;;;8.02;;
35326;SDS011;21436;52.348;20.928;2022-10-30T15:20:17;13.45;;;8.15;;
35326;SDS011;21436;52.348;20.928;2022-10-30T15:22:48;11.05;;;7.40;;
35326;SDS011;21436;52.348;20.928;2022-10-30T15:25:20;10.75;;;7.68;;
35326;SDS011;21436;52.348;20.928;2022-10-30T15:27:52;21.20;;;8.65;;
35326;SDS011;21436;52.348;20.928;2022-10-30T15:30:22;12.18;;;7.80;;
35326;SDS011;21436;52.348;20.928;2022-10-30T15:32:51;13.15;;;7.97;;
35326;SDS011;21436;52.348;20.928;2022-10-30T15:35:25;10.52;;;7.00;;
35326;SDS011;21436;52.348;20.928;2022-10-30T15:40:58;20.98;;;9.00;;
35326;SDS011;21436;52.348;20.928;2022-10-30T15:43:29;13.48;;;8.30;;
35326;SDS011;21436;52.348;20.928;2022-10-30T15:45:58;14.98;;;9.93;;
35326;SDS011;21436;52.348;20.928;2022-10-30T15:48:32;13.55;;;9.15;;
35326;SDS011;21436;52.348;20.928;2022-10-30T15:51:00;16.27;;;9.05;;
35326;SDS011;21436;52.348;20.928;2022-10-30T15:53:42;42.95;;;14.95;;
35326;SDS011;21436;52.348;20.928;2022-10-30T15:59:21;34.38;;;15.05;;
35326;SDS011;21436;52.348;20.928;2022-10-30T16:02:21;31.85;;;15.80;;
35326;SDS011;21436;52.348;20.928;2022-10-30T16:04:50;64.47;;;28.30;;
35326;SDS011;21436;52.348;20.928;2022-10-30T16:07:21;88.35;;;37.53;;
35326;SDS011;21436;52.348;20.928;2022-10-30T16:09:51;86.25;;;38.15;;
35326;SDS011;21436;52.348;20.928;2022-10-30T16:12:28;81.82;;;34.88;;
35326;SDS011;21436;52.348;20.928;2022-10-30T16:15:05;54.88;;;26.88;;
35326;SDS011;21436;52.348;20.928;2022-10-30T16:17:33;72.05;;;31.58;;
35326;SDS011;21436;52.348;20.928;2022-10-30T16:20:02;86.93;;;37.42;;
35326;SDS011;21436;52.348;20.928;2022-10-30T16:22:48;77.78;;;32.58;;
35326;SDS011;21436;52.348;20.928;2022-10-30T16:25:16;90.55;;;37.45;;
35326;SDS011;21436;52.348;20.928;2022-10-30T16:27:44;81.65;;;34.90;;
35326;SDS011;21436;52.348;20.928;2022-10-30T16:30:13;80.88;;;35.95;;
35326;SDS011;21436;52.348;20.928;2022-10-30T16:32:40;143.80;;;62.42;;
35326;SDS011;21436;52.348;20.928;2022-10-30T16:35:11;202.32;;;86.75;;
35326;SDS011;21436;52.348;20.928;2022-10-30T16:37:39;206.90;;;89.05;;
35326;SDS011;21436;52.348;20.928;2022-10-30T16:42:37;159.35;;;70.72;;
35326;SDS011;21436;52.348;20.928;2022-10-30T16:48:13;139.43;;;60.28;;
35326;SDS011;21436;52.348;20.928;2022-10-30T16:50:43;138.40;;;54.42;;
35326;SDS011;21436;52.348;20.928;2022-10-30T16:53:29;104.65;;;47.90;;
35326;SDS011;21436;52.348;20.928;2022-10-30T16:55:57;107.22;;;50.95;;
35326;SDS011;21436;52.348;20.928;2022-10-30T16:58:29;95.88;;;45.25;;
35326;SDS011;21436;52.348;20.928;2022-10-30T17:01:15;68.95;;;33.78;;
35326;SDS011;21436;52.348;20.928;2022-10-30T17:03:42;59.63;;;29.67;;
35326;SDS011;21436;52.348;20.928;2022-10-30T17:09:14;49.05;;;27.85;;
35326;SDS011;21436;52.348;20.928;2022-10-30T17:11:58;52.08;;;27.35;;
35326;SDS011;21436;52.348;20.928;2022-10-30T17:17:20;66.38;;;32.83;;
35326;SDS011;21436;52.348;20.928;2022-10-30T17:20:24;57.63;;;32.03;;
35326;SDS011;21436;52.348;20.928;2022-10-30T17:23:31;50.28;;;26.50;;
35326;SDS011;21436;52.348;20.928;2022-10-30T17:25:51;56.78;;;27.35;;
35326;SDS011;21436;52.348;20.928;2022-10-30T17:28:36;47.78;;;24.63;;
35326;SDS011;21436;52.348;20.928;2022-10-30T17:33:45;52.05;;;25.55;;
35326;SDS011;21436;52.348;20.928;2022-10-30T17:36:13;47.13;;;26.50;;
35326;SDS011;21436;52.348;20.928;2022-10-30T17:38:40;52.75;;;28.50;;
35326;SDS011;21436;52.348;20.928;2022-10-30T17:41:08;49.20;;;27.42;;
35326;SDS011;21436;52.348;20.928;2022-10-30T17:43:51;49.85;;;27.35;;
35326;SDS011;21436;52.348;20.928;2022-10-30T17:46:38;51.28;;;25.23;;
35326;SDS011;21436;52.348;20.928;2022-10-30T17:49:27;46.75;;;25.70;;
35326;SDS011;21436;52.348;20.928;2022-10-30T17:51:55;56.33;;;27.48;;
35326;SDS011;21436;52.348;20.928;2022-10-30T17:54:41;45.83;;;27.67;;
35326;SDS011;21436;52.348;20.928;2022-10-30T17:57:09;51.30;;;26.95;;
35326;SDS011;21436;52.348;20.928;2022-10-30T17:59:38;63.97;;;32.13;;
35326;SDS011;21436;52.348;20.928;2022-10-30T18:02:23;56.72;;;29.80;;
35326;SDS011;21436;52.348;20.928;2022-10-30T18:04:51;47.63;;;27.48;;
35326;SDS011;21436;52.348;20.928;2022-10-30T18:07:20;46.80;;;26.42;;
35326;SDS011;21436;52.348;20.928;2022-10-30T18:09:48;51.20;;;26.38;;
35326;SDS011;21436;52.348;20.928;2022-10-30T18:12:33;58.92;;;30.40;;
35326;SDS011;21436;52.348;20.928;2022-10-30T18:15:10;75.40;;;37.13;;
35326;SDS011;21436;52.348;20.928;2022-10-30T18:17:42;74.07;;;36.08;;